SFY4PC EGBJ-EGFF
Flight info
| Callsign | SFY4PC |
|---|---|
| Flight time | N/A |
| Altitude | 8000 |
| Route | BADIM DCT ICCIN DCT CDF |
| Aircraft | DA42/L-SBDGRY/S |
Departure
| Time | 2026-04-28 12:16 |
|---|---|
| Airport | Gloucestershire Airport (EGBJ) |
Arrival
| Time | N/A |
|---|---|
| Airport | Cardiff International Airport (EGFF) |
| Time | Latitude | Longitude | Altitude | Speed | Heading |
|---|---|---|---|---|---|
| 2026-04-28 11:50 | 51.88929 | -2.16384 | 88 ft | 0 kts | 352° |
| 2026-04-28 12:10 | 51.88951 | -2.16396 | 88 ft | 5 kts | 318° |
| 2026-04-28 12:10 | 51.88954 | -2.16465 | 88 ft | 6 kts | 265° |
| 2026-04-28 12:11 | 51.88918 | -2.16511 | 88 ft | 9 kts | 201° |
| 2026-04-28 12:11 | 51.88869 | -2.16600 | 88 ft | 12 kts | 250° |
| 2026-04-28 12:11 | 51.88858 | -2.16756 | 88 ft | 15 kts | 276° |
| 2026-04-28 12:11 | 51.88904 | -2.16928 | 89 ft | 18 kts | 298° |
| 2026-04-28 12:12 | 51.88977 | -2.17094 | 89 ft | 18 kts | 309° |
| 2026-04-28 12:12 | 51.89068 | -2.17204 | 89 ft | 14 kts | 332° |
| 2026-04-28 12:12 | 51.89132 | -2.17254 | 92 ft | 9 kts | 325° |
| 2026-04-28 12:12 | 51.89181 | -2.17329 | 89 ft | 11 kts | 314° |
| 2026-04-28 12:13 | 51.89238 | -2.17421 | 89 ft | 12 kts | 311° |
| 2026-04-28 12:13 | 51.89273 | -2.17478 | 89 ft | 0 kts | 315° |
| 2026-04-28 12:14 | 51.89273 | -2.17479 | 89 ft | 0 kts | 314° |
| 2026-04-28 12:14 | 51.89298 | -2.17516 | 89 ft | 12 kts | 319° |
| 2026-04-28 12:14 | 51.89352 | -2.17553 | 87 ft | 7 kts | 63° |
| 2026-04-28 12:14 | 51.89356 | -2.17523 | 88 ft | 0 kts | 82° |
| 2026-04-28 12:15 | 51.89361 | -2.17473 | 87 ft | 24 kts | 82° |
| 2026-04-28 12:15 | 51.89397 | -2.16948 | 120 ft | 61 kts | 81° |
| 2026-04-28 12:15 | 51.89453 | -2.16228 | 320 ft | 69 kts | 74° |
| 2026-04-28 12:15 | 51.89537 | -2.15395 | 548 ft | 80 kts | 72° |
| 2026-04-28 12:16 | 51.89618 | -2.14506 | 863 ft | 80 kts | 75° |
| 2026-04-28 12:16 | 51.89687 | -2.13552 | 1130 ft | 87 kts | 77° |
| 2026-04-28 12:16 | 51.89769 | -2.12616 | 1468 ft | 84 kts | 75° |
| 2026-04-28 12:16 | 51.89784 | -2.11695 | 1808 ft | 85 kts | 100° |
| 2026-04-28 12:17 | 51.89286 | -2.11033 | 2127 ft | 109 kts | 152° |
| 2026-04-28 12:17 | 51.88493 | -2.11168 | 2433 ft | 122 kts | 195° |
| 2026-04-28 12:17 | 51.87729 | -2.11875 | 2706 ft | 131 kts | 208° |
| 2026-04-28 12:17 | 51.86993 | -2.12809 | 2994 ft | 136 kts | 215° |
| 2026-04-28 12:18 | 51.86271 | -2.13858 | 3211 ft | 145 kts | 220° |
| 2026-04-28 12:18 | 51.85557 | -2.15023 | 3455 ft | 146 kts | 223° |
| 2026-04-28 12:18 | 51.84861 | -2.16198 | 3757 ft | 142 kts | 221° |
| 2026-04-28 12:18 | 51.84192 | -2.17333 | 4080 ft | 138 kts | 220° |
| 2026-04-28 12:19 | 51.83540 | -2.18455 | 4400 ft | 136 kts | 222° |
| 2026-04-28 12:19 | 51.82930 | -2.19581 | 4755 ft | 132 kts | 223° |
| 2026-04-28 12:19 | 51.82318 | -2.20694 | 5061 ft | 133 kts | 223° |
| 2026-04-28 12:19 | 51.81720 | -2.21836 | 5381 ft | 132 kts | 222° |
| 2026-04-28 12:20 | 51.81122 | -2.22972 | 5669 ft | 133 kts | 221° |
| 2026-04-28 12:20 | 51.80507 | -2.24093 | 5951 ft | 134 kts | 220° |
| 2026-04-28 12:20 | 51.79873 | -2.25202 | 6249 ft | 134 kts | 221° |
| 2026-04-28 12:20 | 51.79242 | -2.26303 | 6578 ft | 132 kts | 223° |
| 2026-04-28 12:21 | 51.78629 | -2.27453 | 6777 ft | 143 kts | 229° |
| 2026-04-28 12:21 | 51.78070 | -2.28754 | 7066 ft | 141 kts | 237° |
| 2026-04-28 12:21 | 51.77560 | -2.30150 | 7306 ft | 145 kts | 239° |
| 2026-04-28 12:21 | 51.77108 | -2.31585 | 7595 ft | 144 kts | 242° |
| 2026-04-28 12:22 | 51.76637 | -2.33030 | 7870 ft | 144 kts | 240° |
| 2026-04-28 12:22 | 51.76157 | -2.34439 | 8171 ft | 143 kts | 239° |
| 2026-04-28 12:22 | 51.75655 | -2.35856 | 8353 ft | 152 kts | 239° |
| 2026-04-28 12:22 | 51.75096 | -2.37414 | 8368 ft | 169 kts | 238° |
| 2026-04-28 12:23 | 51.74478 | -2.39104 | 8365 ft | 180 kts | 238° |
| 2026-04-28 12:23 | 51.73830 | -2.40865 | 8365 ft | 185 kts | 238° |
| 2026-04-28 12:23 | 51.73167 | -2.42663 | 8358 ft | 188 kts | 238° |
| 2026-04-28 12:23 | 51.72489 | -2.44482 | 8355 ft | 191 kts | 238° |
| 2026-04-28 12:24 | 51.71797 | -2.46323 | 8356 ft | 193 kts | 238° |
| 2026-04-28 12:24 | 51.71111 | -2.48154 | 8353 ft | 189 kts | 238° |
| 2026-04-28 12:24 | 51.70437 | -2.49956 | 8351 ft | 186 kts | 238° |
| 2026-04-28 12:24 | 51.69770 | -2.51735 | 8347 ft | 185 kts | 238° |
| 2026-04-28 12:25 | 51.69104 | -2.53507 | 8346 ft | 185 kts | 238° |
| 2026-04-28 12:25 | 51.68437 | -2.55281 | 8338 ft | 185 kts | 238° |
| 2026-04-28 12:25 | 51.67772 | -2.57053 | 8327 ft | 184 kts | 238° |
| 2026-04-28 12:25 | 51.67110 | -2.58814 | 8330 ft | 183 kts | 238° |
| 2026-04-28 12:26 | 51.66451 | -2.60563 | 8324 ft | 182 kts | 238° |
| 2026-04-28 12:26 | 51.65796 | -2.62307 | 8325 ft | 182 kts | 238° |
| 2026-04-28 12:26 | 51.65152 | -2.64064 | 8323 ft | 182 kts | 239° |
| 2026-04-28 12:26 | 51.64508 | -2.65831 | 8324 ft | 182 kts | 239° |
| 2026-04-28 12:27 | 51.63865 | -2.67592 | 8323 ft | 183 kts | 239° |
| 2026-04-28 12:27 | 51.63222 | -2.69355 | 8322 ft | 183 kts | 239° |
| 2026-04-28 12:27 | 51.62581 | -2.71116 | 8326 ft | 182 kts | 239° |
| 2026-04-28 12:27 | 51.61950 | -2.72854 | 8328 ft | 182 kts | 239° |
| 2026-04-28 12:28 | 51.61303 | -2.74637 | 8325 ft | 182 kts | 239° |
| 2026-04-28 12:28 | 51.60662 | -2.76397 | 8327 ft | 182 kts | 239° |
| 2026-04-28 12:28 | 51.60029 | -2.78133 | 8326 ft | 183 kts | 239° |
| 2026-04-28 12:28 | 51.59387 | -2.79894 | 8328 ft | 182 kts | 239° |
| 2026-04-28 12:29 | 51.58105 | -2.83418 | 8417 ft | 183 kts | 239° |
| 2026-04-28 12:29 | 51.57461 | -2.85181 | 8418 ft | 183 kts | 239° |
| 2026-04-28 12:29 | 51.56817 | -2.86942 | 8416 ft | 183 kts | 239° |
| 2026-04-28 12:30 | 51.56172 | -2.88704 | 8414 ft | 183 kts | 239° |
| 2026-04-28 12:30 | 51.55525 | -2.90469 | 8406 ft | 184 kts | 239° |
| 2026-04-28 12:30 | 51.54874 | -2.92242 | 8401 ft | 184 kts | 239° |
| 2026-04-28 12:30 | 51.54224 | -2.94016 | 8399 ft | 185 kts | 239° |
| 2026-04-28 12:31 | 51.53571 | -2.95793 | 8412 ft | 185 kts | 239° |
| 2026-04-28 12:31 | 51.52922 | -2.97564 | 8406 ft | 184 kts | 239° |
| 2026-04-28 12:31 | 51.52278 | -2.99332 | 8395 ft | 183 kts | 239° |
| 2026-04-28 12:31 | 51.51635 | -3.01105 | 8226 ft | 183 kts | 239° |
| 2026-04-28 12:32 | 51.51001 | -3.02855 | 7968 ft | 180 kts | 239° |
| 2026-04-28 12:32 | 51.50376 | -3.04588 | 7768 ft | 178 kts | 239° |
| 2026-04-28 12:32 | 51.49759 | -3.06309 | 7568 ft | 178 kts | 239° |
| 2026-04-28 12:32 | 51.49143 | -3.08031 | 7368 ft | 178 kts | 239° |
| 2026-04-28 12:33 | 51.48526 | -3.09740 | 7168 ft | 176 kts | 238° |
| 2026-04-28 12:33 | 51.47906 | -3.11427 | 6966 ft | 175 kts | 238° |
| 2026-04-28 12:33 | 51.47291 | -3.13107 | 6777 ft | 174 kts | 238° |
| 2026-04-28 12:33 | 51.46668 | -3.14766 | 6571 ft | 173 kts | 237° |
| 2026-04-28 12:34 | 51.46046 | -3.16402 | 6364 ft | 171 kts | 237° |
| 2026-04-28 12:34 | 51.45442 | -3.17999 | 6154 ft | 164 kts | 237° |
| 2026-04-28 12:34 | 51.44864 | -3.19545 | 5945 ft | 160 kts | 237° |
| 2026-04-28 12:34 | 51.44302 | -3.21064 | 5739 ft | 157 kts | 237° |
| 2026-04-28 12:35 | 51.43747 | -3.22546 | 5535 ft | 154 kts | 237° |
| 2026-04-28 12:35 | 51.43203 | -3.23999 | 5335 ft | 154 kts | 237° |
| 2026-04-28 12:35 | 51.42653 | -3.25478 | 5136 ft | 156 kts | 237° |
| 2026-04-28 12:35 | 51.42105 | -3.26967 | 4925 ft | 154 kts | 237° |
| 2026-04-28 12:36 | 51.41557 | -3.28429 | 4708 ft | 152 kts | 237° |
| 2026-04-28 12:36 | 51.41002 | -3.29868 | 4498 ft | 151 kts | 237° |
| 2026-04-28 12:36 | 51.40451 | -3.31289 | 4293 ft | 149 kts | 236° |
| 2026-04-28 12:36 | 51.39898 | -3.32712 | 4006 ft | 153 kts | 234° |
| 2026-04-28 12:37 | 51.39285 | -3.34120 | 3780 ft | 152 kts | 232° |
| 2026-04-28 12:37 | 51.38697 | -3.35499 | 3592 ft | 150 kts | 237° |
| 2026-04-28 12:37 | 51.38155 | -3.36904 | 3393 ft | 148 kts | 227° |
| 2026-04-28 12:37 | 51.37311 | -3.37763 | 3103 ft | 142 kts | 183° |
| 2026-04-28 12:38 | 51.36411 | -3.37522 | 3039 ft | 125 kts | 136° |
| 2026-04-28 12:38 | 51.35919 | -3.36484 | 3022 ft | 118 kts | 110° |
| 2026-04-28 12:38 | 51.35609 | -3.35329 | 3064 ft | 112 kts | 98° |
| 2026-04-28 12:38 | 51.35423 | -3.34125 | 3041 ft | 113 kts | 96° |
| 2026-04-28 12:39 | 51.35219 | -3.32891 | 2965 ft | 115 kts | 97° |
| 2026-04-28 12:39 | 51.34988 | -3.31654 | 2923 ft | 116 kts | 97° |
| 2026-04-28 12:39 | 51.34759 | -3.30436 | 2963 ft | 113 kts | 98° |
| 2026-04-28 12:39 | 51.34561 | -3.29230 | 2965 ft | 110 kts | 88° |
| 2026-04-28 12:40 | 51.34828 | -3.28183 | 2976 ft | 108 kts | 44° |
| 2026-04-28 12:40 | 51.35578 | -3.27912 | 2963 ft | 121 kts | 359° |
| 2026-04-28 12:40 | 51.36327 | -3.28651 | 2952 ft | 135 kts | 324° |
| 2026-04-28 12:40 | 51.37018 | -3.29583 | 2946 ft | 127 kts | 335° |
| 2026-04-28 12:41 | 51.37716 | -3.30424 | 2959 ft | 128 kts | 333° |
| 2026-04-28 12:41 | 51.38410 | -3.31353 | 2970 ft | 131 kts | 328° |
| 2026-04-28 12:41 | 51.38982 | -3.32553 | 2993 ft | 139 kts | 311° |
| 2026-04-28 12:41 | 51.39413 | -3.33962 | 3022 ft | 142 kts | 301° |
| 2026-04-28 12:42 | 51.39728 | -3.35477 | 3055 ft | 144 kts | 292° |
| 2026-04-28 12:42 | 51.39986 | -3.36995 | 2957 ft | 138 kts | 295° |
| 2026-04-28 12:42 | 51.40268 | -3.38462 | 2794 ft | 139 kts | 295° |
| 2026-04-28 12:42 | 51.40550 | -3.39947 | 2603 ft | 141 kts | 295° |
| 2026-04-28 12:43 | 51.40824 | -3.41480 | 2525 ft | 146 kts | 293° |
| 2026-04-28 12:43 | 51.41098 | -3.43069 | 2490 ft | 148 kts | 293° |
| 2026-04-28 12:43 | 51.41354 | -3.44643 | 2519 ft | 145 kts | 292° |
| 2026-04-28 12:43 | 51.41616 | -3.46235 | 2417 ft | 149 kts | 294° |
| 2026-04-28 12:44 | 51.41892 | -3.47801 | 2401 ft | 146 kts | 294° |
| 2026-04-28 12:44 | 51.42160 | -3.49308 | 2469 ft | 138 kts | 294° |
| 2026-04-28 12:44 | 51.42333 | -3.50297 | 2394 ft | 140 kts | 292° |
| 2026-04-28 12:44 | 51.42604 | -3.51791 | 2221 ft | 139 kts | 294° |
| 2026-04-28 12:45 | 51.42892 | -3.53276 | 2188 ft | 139 kts | 295° |
| 2026-04-28 12:45 | 51.43175 | -3.54750 | 2179 ft | 138 kts | 295° |
| 2026-04-28 12:45 | 51.43556 | -3.56682 | 2217 ft | 134 kts | 303° |
| 2026-04-28 12:45 | 51.44113 | -3.57740 | 2248 ft | 118 kts | 341° |
| 2026-04-28 12:46 | 51.44621 | -3.57980 | 2237 ft | 109 kts | 9° |
| 2026-04-28 12:46 | 51.45268 | -3.57561 | 2222 ft | 101 kts | 51° |
| 2026-04-28 12:46 | 51.45503 | -3.56503 | 2188 ft | 104 kts | 76° |
| 2026-04-28 12:46 | 51.45640 | -3.55380 | 2183 ft | 100 kts | 75° |
| 2026-04-28 12:47 | 51.45768 | -3.54296 | 2203 ft | 99 kts | 86° |
| 2026-04-28 12:47 | 51.45524 | -3.53223 | 2187 ft | 106 kts | 108° |
| 2026-04-28 12:47 | 51.45194 | -3.52165 | 2174 ft | 106 kts | 106° |
| 2026-04-28 12:47 | 51.44770 | -3.50772 | 2154 ft | 105 kts | 105° |
| 2026-04-28 12:48 | 51.44552 | -3.50080 | 2187 ft | 98 kts | 107° |
| 2026-04-28 12:48 | 51.44256 | -3.49211 | 2146 ft | 85 kts | 104° |
| 2026-04-28 12:48 | 51.43994 | -3.48391 | 2049 ft | 82 kts | 104° |
| 2026-04-28 12:48 | 51.43736 | -3.47584 | 1945 ft | 80 kts | 102° |
| 2026-04-28 12:49 | 51.43511 | -3.46772 | 1838 ft | 80 kts | 102° |
| 2026-04-28 12:49 | 51.43257 | -3.45964 | 1732 ft | 82 kts | 104° |
| 2026-04-28 12:49 | 51.43005 | -3.45141 | 1601 ft | 82 kts | 104° |
| 2026-04-28 12:49 | 51.42774 | -3.44308 | 1484 ft | 83 kts | 103° |
| 2026-04-28 12:50 | 51.42511 | -3.43460 | 1394 ft | 87 kts | 109° |
| 2026-04-28 12:50 | 51.42238 | -3.42612 | 1267 ft | 85 kts | 104° |
| 2026-04-28 12:50 | 51.41975 | -3.41753 | 1125 ft | 87 kts | 106° |
| 2026-04-28 12:50 | 51.41697 | -3.40893 | 1006 ft | 87 kts | 105° |
| 2026-04-28 12:51 | 51.41424 | -3.40004 | 878 ft | 89 kts | 106° |
| 2026-04-28 12:51 | 51.41145 | -3.39106 | 751 ft | 90 kts | 105° |
| 2026-04-28 12:51 | 51.40878 | -3.38237 | 623 ft | 85 kts | 105° |
| 2026-04-28 12:51 | 51.40627 | -3.37404 | 506 ft | 83 kts | 104° |
| 2026-04-28 12:52 | 51.40366 | -3.36588 | 493 ft | 78 kts | 111° |
| 2026-04-28 12:52 | 51.40101 | -3.35816 | 688 ft | 84 kts | 107° |
| 2026-04-28 12:52 | 51.39842 | -3.34954 | 964 ft | 89 kts | 106° |
| 2026-04-28 12:52 | 51.39562 | -3.34038 | 1241 ft | 93 kts | 105° |
| 2026-04-28 12:53 | 51.39257 | -3.33134 | 1552 ft | 89 kts | 107° |
| 2026-04-28 12:53 | 51.38955 | -3.32288 | 1860 ft | 88 kts | 105° |
| 2026-04-28 12:53 | 51.38677 | -3.31413 | 2154 ft | 87 kts | 99° |
| 2026-04-28 12:53 | 51.38763 | -3.30573 | 2440 ft | 78 kts | 48° |
| 2026-04-28 12:54 | 51.39265 | -3.30173 | 2699 ft | 82 kts | 30° |
| 2026-04-28 12:54 | 51.39788 | -3.29790 | 2950 ft | 84 kts | 30° |
| 2026-04-28 12:54 | 51.40317 | -3.29419 | 3292 ft | 83 kts | 29° |
| 2026-04-28 12:54 | 51.40846 | -3.29096 | 3511 ft | 75 kts | 31° |
| 2026-04-28 12:55 | 51.41329 | -3.28864 | 3554 ft | 70 kts | 29° |
| 2026-04-28 12:55 | 51.41804 | -3.28715 | 3597 ft | 70 kts | 25° |
| 2026-04-28 12:55 | 51.42265 | -3.28560 | 3674 ft | 67 kts | 32° |
| 2026-04-28 12:55 | 51.42730 | -3.28337 | 3711 ft | 73 kts | 29° |
| 2026-04-28 12:56 | 51.43224 | -3.28075 | 3772 ft | 76 kts | 32° |
| 2026-04-28 12:56 | 51.43749 | -3.27819 | 3857 ft | 80 kts | 26° |
| 2026-04-28 12:56 | 51.44298 | -3.27502 | 4095 ft | 89 kts | 32° |
| 2026-04-28 12:56 | 51.44844 | -3.27074 | 4461 ft | 85 kts | 36° |
| 2026-04-28 12:57 | 51.45388 | -3.26641 | 4795 ft | 88 kts | 33° |
| 2026-04-28 12:57 | 51.45982 | -3.26235 | 4931 ft | 106 kts | 32° |
| 2026-04-28 12:57 | 51.46686 | -3.25783 | 5233 ft | 100 kts | 29° |
| 2026-04-28 12:57 | 51.47331 | -3.25270 | 5221 ft | 118 kts | 45° |
| 2026-04-28 12:58 | 51.47995 | -3.24353 | 5070 ft | 131 kts | 46° |
| 2026-04-28 12:58 | 51.48684 | -3.23385 | 5000 ft | 135 kts | 44° |
| 2026-04-28 12:58 | 51.49409 | -3.22418 | 4951 ft | 134 kts | 44° |
| 2026-04-28 12:58 | 51.50118 | -3.21479 | 4935 ft | 131 kts | 43° |
| 2026-04-28 12:59 | 51.50811 | -3.20570 | 4982 ft | 126 kts | 44° |
| 2026-04-28 12:59 | 51.51488 | -3.19701 | 4979 ft | 126 kts | 44° |
| 2026-04-28 12:59 | 51.52176 | -3.18817 | 4979 ft | 126 kts | 44° |
| 2026-04-28 12:59 | 51.52861 | -3.17926 | 4977 ft | 127 kts | 44° |
| 2026-04-28 13:00 | 51.53551 | -3.17037 | 4975 ft | 126 kts | 44° |
| 2026-04-28 13:00 | 51.54241 | -3.16173 | 4976 ft | 125 kts | 44° |
| 2026-04-28 13:00 | 51.54931 | -3.15315 | 4971 ft | 125 kts | 44° |
| 2026-04-28 13:00 | 51.55602 | -3.14422 | 4973 ft | 126 kts | 45° |
| 2026-04-28 13:01 | 51.56271 | -3.13502 | 4963 ft | 127 kts | 46° |
| 2026-04-28 13:01 | 51.56947 | -3.12590 | 5036 ft | 127 kts | 45° |
| 2026-04-28 13:01 | 51.57621 | -3.11689 | 5045 ft | 126 kts | 46° |
| 2026-04-28 13:01 | 51.58297 | -3.10780 | 5050 ft | 127 kts | 46° |
| 2026-04-28 13:02 | 51.58977 | -3.09856 | 5056 ft | 129 kts | 46° |
| 2026-04-28 13:02 | 51.59661 | -3.08912 | 5061 ft | 130 kts | 46° |
| 2026-04-28 13:02 | 51.60347 | -3.07970 | 5060 ft | 129 kts | 46° |
| 2026-04-28 13:02 | 51.61028 | -3.07046 | 5066 ft | 127 kts | 45° |
| 2026-04-28 13:03 | 51.61708 | -3.06124 | 5069 ft | 128 kts | 46° |
| 2026-04-28 13:03 | 51.62385 | -3.05191 | 5072 ft | 129 kts | 46° |
| 2026-04-28 13:03 | 51.63065 | -3.04251 | 5079 ft | 129 kts | 46° |
| 2026-04-28 13:03 | 51.63744 | -3.03318 | 5080 ft | 127 kts | 46° |
| 2026-04-28 13:04 | 51.64420 | -3.02400 | 5091 ft | 128 kts | 46° |
| 2026-04-28 13:04 | 51.65104 | -3.01471 | 5101 ft | 129 kts | 46° |
| 2026-04-28 13:04 | 51.65792 | -3.00536 | 5096 ft | 129 kts | 46° |
| 2026-04-28 13:04 | 51.66484 | -2.99611 | 5096 ft | 129 kts | 45° |
| 2026-04-28 13:05 | 51.67170 | -2.98692 | 5098 ft | 128 kts | 45° |
| 2026-04-28 13:05 | 51.67862 | -2.97784 | 5093 ft | 128 kts | 45° |
| 2026-04-28 13:05 | 51.68537 | -2.96885 | 5089 ft | 127 kts | 45° |
| 2026-04-28 13:05 | 51.69217 | -2.95983 | 5090 ft | 126 kts | 45° |
| 2026-04-28 13:06 | 51.69898 | -2.95096 | 5096 ft | 126 kts | 45° |
| 2026-04-28 13:06 | 51.70586 | -2.94208 | 5095 ft | 127 kts | 44° |
| 2026-04-28 13:06 | 51.71255 | -2.93279 | 5088 ft | 126 kts | 55° |
| 2026-04-28 13:06 | 51.71710 | -2.92096 | 5093 ft | 124 kts | 63° |
| 2026-04-28 13:07 | 51.72119 | -2.90878 | 5089 ft | 123 kts | 63° |
| 2026-04-28 13:07 | 51.72517 | -2.89667 | 5102 ft | 123 kts | 64° |
| 2026-04-28 13:07 | 51.72921 | -2.88442 | 5098 ft | 124 kts | 64° |
| 2026-04-28 13:07 | 51.73384 | -2.87262 | 5097 ft | 126 kts | 56° |
| 2026-04-28 13:08 | 51.73953 | -2.86183 | 5095 ft | 127 kts | 52° |
| 2026-04-28 13:08 | 51.74539 | -2.85123 | 5095 ft | 126 kts | 52° |
| 2026-04-28 13:08 | 51.75124 | -2.84069 | 5094 ft | 125 kts | 52° |
| 2026-04-28 13:08 | 51.75703 | -2.83034 | 5091 ft | 124 kts | 52° |
| 2026-04-28 13:09 | 51.76279 | -2.82005 | 5091 ft | 124 kts | 52° |
| 2026-04-28 13:09 | 51.76856 | -2.80978 | 4973 ft | 124 kts | 52° |
| 2026-04-28 13:09 | 51.77440 | -2.79942 | 4975 ft | 126 kts | 52° |
| 2026-04-28 13:09 | 51.78029 | -2.78904 | 4975 ft | 125 kts | 52° |
| 2026-04-28 13:10 | 51.78561 | -2.77824 | 4980 ft | 124 kts | 63° |
| 2026-04-28 13:10 | 51.78963 | -2.76599 | 4980 ft | 124 kts | 66° |
| 2026-04-28 13:10 | 51.79350 | -2.75359 | 4978 ft | 123 kts | 66° |
| 2026-04-28 13:10 | 51.79732 | -2.74128 | 4975 ft | 122 kts | 66° |
| 2026-04-28 13:11 | 51.80146 | -2.72920 | 4975 ft | 123 kts | 62° |
| 2026-04-28 13:11 | 51.80608 | -2.71755 | 4979 ft | 123 kts | 61° |
| 2026-04-28 13:11 | 51.81074 | -2.70591 | 4971 ft | 124 kts | 61° |
| 2026-04-28 13:11 | 51.81544 | -2.69422 | 4980 ft | 125 kts | 61° |
| 2026-04-28 13:12 | 51.82006 | -2.68293 | 4764 ft | 116 kts | 60° |
| 2026-04-28 13:12 | 51.82444 | -2.67243 | 4553 ft | 110 kts | 60° |
| 2026-04-28 13:12 | 51.82860 | -2.66236 | 4346 ft | 106 kts | 60° |
| 2026-04-28 13:12 | 51.83265 | -2.65244 | 4132 ft | 105 kts | 60° |
| 2026-04-28 13:13 | 51.83662 | -2.64272 | 3938 ft | 103 kts | 59° |
| 2026-04-28 13:13 | 51.84047 | -2.63292 | 3724 ft | 102 kts | 60° |
| 2026-04-28 13:13 | 51.84423 | -2.62335 | 3519 ft | 100 kts | 59° |
| 2026-04-28 13:13 | 51.84786 | -2.61384 | 3313 ft | 99 kts | 60° |
| 2026-04-28 13:14 | 51.85166 | -2.60448 | 3068 ft | 100 kts | 56° |
| 2026-04-28 13:14 | 51.85590 | -2.59522 | 2986 ft | 105 kts | 57° |
| 2026-04-28 13:14 | 51.85985 | -2.58542 | 3049 ft | 102 kts | 58° |
| 2026-04-28 13:14 | 51.86305 | -2.57442 | 2967 ft | 110 kts | 74° |
| 2026-04-28 13:15 | 51.86427 | -2.56219 | 2911 ft | 111 kts | 78° |
| 2026-04-28 13:15 | 51.86526 | -2.54989 | 2763 ft | 112 kts | 76° |
| 2026-04-28 13:15 | 51.86639 | -2.53757 | 2619 ft | 109 kts | 77° |
| 2026-04-28 13:15 | 51.86761 | -2.52544 | 2524 ft | 109 kts | 79° |
| 2026-04-28 13:16 | 51.86874 | -2.51366 | 2495 ft | 104 kts | 78° |
| 2026-04-28 13:16 | 51.86974 | -2.50224 | 2468 ft | 100 kts | 79° |
| 2026-04-28 13:16 | 51.87075 | -2.49120 | 2473 ft | 101 kts | 77° |
| 2026-04-28 13:16 | 51.87176 | -2.47978 | 2422 ft | 103 kts | 77° |
| 2026-04-28 13:17 | 51.87270 | -2.46854 | 2469 ft | 100 kts | 77° |
| 2026-04-28 13:17 | 51.87374 | -2.45748 | 2499 ft | 100 kts | 78° |
| 2026-04-28 13:17 | 51.87472 | -2.44628 | 2499 ft | 101 kts | 77° |
| 2026-04-28 13:17 | 51.87574 | -2.43525 | 2468 ft | 98 kts | 77° |
| 2026-04-28 13:18 | 51.87652 | -2.42445 | 2349 ft | 95 kts | 81° |
| 2026-04-28 13:18 | 51.87725 | -2.41368 | 2197 ft | 96 kts | 81° |
| 2026-04-28 13:18 | 51.87777 | -2.40304 | 2158 ft | 94 kts | 82° |
| 2026-04-28 13:18 | 51.87840 | -2.39216 | 2036 ft | 101 kts | 81° |
| 2026-04-28 13:19 | 51.87899 | -2.38076 | 1947 ft | 102 kts | 80° |
| 2026-04-28 13:19 | 51.87962 | -2.36912 | 1848 ft | 104 kts | 79° |
| 2026-04-28 13:19 | 51.88029 | -2.35744 | 1729 ft | 105 kts | 79° |
| 2026-04-28 13:19 | 51.88111 | -2.34560 | 1691 ft | 107 kts | 77° |
| 2026-04-28 13:20 | 51.88200 | -2.33387 | 1704 ft | 104 kts | 79° |
| 2026-04-28 13:20 | 51.88290 | -2.32236 | 1691 ft | 102 kts | 79° |
| 2026-04-28 13:20 | 51.88401 | -2.31111 | 1685 ft | 97 kts | 78° |
| 2026-04-28 13:20 | 51.88498 | -2.30125 | 1616 ft | 86 kts | 79° |
| 2026-04-28 13:21 | 51.88552 | -2.29203 | 1472 ft | 79 kts | 78° |
| 2026-04-28 13:21 | 51.88621 | -2.28329 | 1337 ft | 78 kts | 78° |
| 2026-04-28 13:21 | 51.88682 | -2.27459 | 1154 ft | 77 kts | 77° |
| 2026-04-28 13:21 | 51.88758 | -2.26618 | 1034 ft | 73 kts | 75° |
| 2026-04-28 13:22 | 51.88804 | -2.25836 | 970 ft | 70 kts | 79° |
| 2026-04-28 13:22 | 51.88862 | -2.25059 | 889 ft | 68 kts | 81° |
| 2026-04-28 13:22 | 51.88917 | -2.24271 | 796 ft | 71 kts | 81° |
| 2026-04-28 13:22 | 51.88948 | -2.23486 | 707 ft | 68 kts | 79° |
| 2026-04-28 13:23 | 51.89003 | -2.22755 | 632 ft | 66 kts | 74° |
| 2026-04-28 13:23 | 51.89063 | -2.22018 | 562 ft | 66 kts | 78° |
| 2026-04-28 13:23 | 51.89107 | -2.21269 | 492 ft | 66 kts | 81° |
| 2026-04-28 13:23 | 51.89169 | -2.20507 | 549 ft | 68 kts | 81° |
| 2026-04-28 13:24 | 51.89208 | -2.19740 | 674 ft | 70 kts | 85° |
| 2026-04-28 13:24 | 51.89241 | -2.18954 | 803 ft | 71 kts | 84° |
| 2026-04-28 13:24 | 51.89256 | -2.18157 | 945 ft | 68 kts | 82° |
| 2026-04-28 13:24 | 51.89324 | -2.17379 | 1046 ft | 69 kts | 79° |
| 2026-04-28 13:25 | 51.89394 | -2.16585 | 1122 ft | 75 kts | 81° |
| 2026-04-28 13:25 | 51.89452 | -2.15716 | 1133 ft | 82 kts | 82° |
| 2026-04-28 13:25 | 51.89497 | -2.14738 | 1110 ft | 91 kts | 83° |
| 2026-04-28 13:25 | 51.89605 | -2.13744 | 1143 ft | 88 kts | 58° |
| 2026-04-28 13:26 | 51.90129 | -2.13265 | 1173 ft | 96 kts | 17° |
| 2026-04-28 13:26 | 51.90830 | -2.13300 | 1122 ft | 104 kts | 7° |
| 2026-04-28 13:26 | 51.91365 | -2.14238 | 1129 ft | 127 kts | 299° |
| 2026-04-28 13:26 | 51.91480 | -2.15727 | 1112 ft | 137 kts | 285° |
| 2026-04-28 13:27 | 51.91469 | -2.17288 | 1138 ft | 140 kts | 275° |
| 2026-04-28 13:27 | 51.91397 | -2.18859 | 1118 ft | 141 kts | 274° |
| 2026-04-28 13:27 | 51.91286 | -2.20385 | 987 ft | 138 kts | 257° |
| 2026-04-28 13:27 | 51.90707 | -2.21549 | 855 ft | 130 kts | 207° |
| 2026-04-28 13:28 | 51.89860 | -2.21890 | 735 ft | 125 kts | 175° |
| 2026-04-28 13:28 | 51.89073 | -2.21562 | 640 ft | 109 kts | 127° |
| 2026-04-28 13:28 | 51.88962 | -2.20628 | 565 ft | 81 kts | 62° |
| 2026-04-28 13:28 | 51.89175 | -2.19756 | 441 ft | 87 kts | 67° |
| 2026-04-28 13:29 | 51.89268 | -2.18760 | 266 ft | 90 kts | 77° |
| 2026-04-28 13:29 | 51.89331 | -2.17830 | 145 ft | 75 kts | 79° |
| 2026-04-28 13:29 | 51.89376 | -2.17142 | 90 ft | 41 kts | 77° |
| 2026-04-28 13:29 | 51.89403 | -2.16804 | 91 ft | 22 kts | 82° |
| 2026-04-28 13:30 | 51.89412 | -2.16619 | 91 ft | 11 kts | 105° |
| 2026-04-28 13:30 | 51.89319 | -2.16566 | 91 ft | 19 kts | 167° |
| 2026-04-28 13:30 | 51.89169 | -2.16544 | 91 ft | 24 kts | 171° |
| 2026-04-28 13:30 | 51.89003 | -2.16516 | 88 ft | 13 kts | 174° |
| 2026-04-28 13:31 | 51.88930 | -2.16384 | 88 ft | 3 kts | 23° |
| 2026-04-28 13:31 | 51.88935 | -2.16383 | 90 ft | 0 kts | 2° |